Time;durP1;ratioP1;P1;durP2;ratioP2;P2;SDS_P1;SDS_P2;PMS_P1;PMS_P2;Temp;Humidity;BMP_temperature;BMP_pressure;BME280_temperature;BME280_humidity;BME280_pressure;Samples;Min_cycle;Max_cycle;Signal;HPM_P1;HPM_P2
2022/02/03 00:00:23;;;;;;;11.70;2.00;;;;;;;;;;5018557;28;20447;-44
2022/02/03 00:03:01;;;;;;;14.48;2.70;;;;;;;;;;5017944;28;20562;-44
2022/02/03 00:05:36;;;;;;;37.60;3.22;;;;;;;;;;5019625;28;20077;-44
2022/02/03 00:08:14;;;;;;;18.00;2.83;;;;;;;;;;5026041;28;20046;-43
2022/02/03 00:24:35;;;;;;;18.45;3.03;;;;;;;;;;5029923;28;20079;-43
2022/02/03 00:27:13;;;;;;;27.75;4.30;;;;;;;;;;5020950;28;20087;-43
2022/02/03 00:29:52;;;;;;;25.95;4.82;;;;;;;;;;5029522;28;20036;-44
2022/02/03 00:51:19;;;;;;;35.45;5.30;;;;;;;;;;5030458;28;20050;-44
2022/02/03 00:53:48;;;;;;;24.52;3.97;;;;;;;;;;5030589;28;20040;-43
2022/02/03 00:56:16;;;;;;;30.15;3.75;;;;;;;;;;5029273;28;20054;-48
2022/02/03 00:58:53;;;;;;;31.67;3.92;;;;;;;;;;5028053;28;20119;-43
2022/02/03 01:01:24;;;;;;;44.90;5.28;;;;;;;;;;5026116;28;20117;-45
2022/02/03 01:03:52;;;;;;;31.20;4.25;;;;;;;;;;5030696;28;20507;-46
2022/02/03 01:06:21;;;;;;;35.05;4.28;;;;;;;;;;5030271;28;20067;-44
2022/02/03 01:08:49;;;;;;;20.42;3.78;;;;;;;;;;5031099;28;20033;-46
2022/02/03 01:11:22;;;;;;;31.77;3.30;;;;;;;;;;5030421;28;20048;-45
2022/02/03 01:19:22;;;;;;;21.58;2.90;;;;;;;;;;5029600;28;20368;-44
2022/02/03 01:33:36;;;;;;;69.50;7.75;;;;;;;;;;4988874;28;20049;-46
2022/02/03 01:44:25;;;;;;;72.80;7.18;;;;;;;;;;5028622;28;20053;-45
2022/02/03 01:52:22;;;;;;;51.83;5.95;;;;;;;;;;5030661;28;20041;-45
2022/02/03 01:54:53;;;;;;;36.30;4.30;;;;;;;;;;5028021;28;20041;-45
2022/02/03 01:57:21;;;;;;;27.17;3.42;;;;;;;;;;5012480;28;20040;-43
2022/02/03 01:59:54;;;;;;;33.83;4.03;;;;;;;;;;5026796;28;20554;-44
2022/02/03 02:02:27;;;;;;;41.83;3.35;;;;;;;;;;5030064;28;20541;-43
2022/02/03 02:05:02;;;;;;;39.47;3.95;;;;;;;;;;5030403;28;20033;-43
2022/02/03 02:07:36;;;;;;;40.70;3.65;;;;;;;;;;5027830;28;20042;-43
2022/02/03 02:10:22;;;;;;;30.60;3.42;;;;;;;;;;5026809;28;20866;-44
2022/02/03 02:13:02;;;;;;;26.02;2.85;;;;;;;;;;5027599;28;20044;-44
2022/02/03 02:18:22;;;;;;;24.00;2.88;;;;;;;;;;5027176;28;20053;-42
2022/02/03 02:38:10;;;;;;;27.20;4.13;;;;;;;;;;5008113;28;20426;-42
2022/02/03 02:41:04;;;;;;;33.53;3.85;;;;;;;;;;5029114;28;20039;-46
2022/02/03 02:43:29;;;;;;;29.58;3.72;;;;;;;;;;5027992;28;20120;-44
2022/02/03 02:46:06;;;;;;;28.95;2.60;;;;;;;;;;5030253;28;20025;-46
2022/02/03 02:48:43;;;;;;;19.98;2.22;;;;;;;;;;5028356;28;20033;-44
2022/02/03 02:51:18;;;;;;;15.32;2.00;;;;;;;;;;5028051;28;20056;-43
2022/02/03 02:59:20;;;;;;;12.75;1.50;;;;;;;;;;5029942;28;20053;-42
2022/02/03 03:30:21;;;;;;;9.93;1.27;;;;;;;;;;5035218;28;20044;-43
2022/02/03 03:38:25;;;;;;;11.27;1.50;;;;;;;;;;5036194;28;20511;-44
2022/02/03 03:40:54;;;;;;;15.02;1.70;;;;;;;;;;5034688;28;20064;-44
2022/02/03 03:43:30;;;;;;;8.20;1.23;;;;;;;;;;5034297;28;20068;-44
2022/02/03 03:45:59;;;;;;;13.70;1.42;;;;;;;;;;5034942;28;20037;-44
2022/02/03 03:48:35;;;;;;;9.75;1.45;;;;;;;;;;5034372;28;20079;-45
2022/02/03 03:51:05;;;;;;;13.73;1.98;;;;;;;;;;5034842;28;20435;-44
2022/02/03 03:53:47;;;;;;;12.90;1.30;;;;;;;;;;5033515;28;20411;-43
2022/02/03 03:56:28;;;;;;;6.65;1.25;;;;;;;;;;5034577;28;20403;-44
2022/02/03 04:39:45;;;;;;;6.85;1.23;;;;;;;;;;5032941;28;20568;-44
2022/02/03 04:45:07;;;;;;;9.00;1.27;;;;;;;;;;5034071;28;20067;-45
2022/02/03 04:56:29;;;;;;;4.05;1.08;;;;;;;;;;5034128;28;20040;-44
2022/02/03 04:59:32;;;;;;;8.57;1.30;;;;;;;;;;5033530;28;20045;-43
2022/02/03 05:02:18;;;;;;;7.43;1.30;;;;;;;;;;5033046;28;20037;-44
2022/02/03 05:05:09;;;;;;;9.07;1.30;;;;;;;;;;5033331;28;20112;-44
2022/02/03 05:08:24;;;;;;;7.32;1.23;;;;;;;;;;5033354;28;20415;-43
2022/02/03 05:19:09;;;;;;;8.25;1.60;;;;;;;;;;5033129;28;20042;-44
2022/02/03 06:08:03;;;;;;;14.18;1.58;;;;;;;;;;5012666;28;20033;-43
2022/02/03 06:13:28;;;;;;;15.65;1.90;;;;;;;;;;5012245;28;20092;-44
2022/02/03 06:21:30;;;;;;;;;;;;;;;;;;5012795;28;20492;-45
2022/02/03 06:29:12;;;;;;;11.80;1.95;;;;;;;;;;5012031;28;20100;-44
2022/02/03 06:31:41;;;;;;;6.60;1.23;;;;;;;;;;5016648;28;20053;-43
2022/02/03 06:34:08;;;;;;;12.65;1.20;;;;;;;;;;5031937;28;20033;-44
2022/02/03 06:36:37;;;;;;;34.83;3.10;;;;;;;;;;5030237;28;20116;-44
2022/02/03 06:39:14;;;;;;;33.85;3.35;;;;;;;;;;5030832;28;20502;-43
2022/02/03 06:41:41;;;;;;;20.40;2.40;;;;;;;;;;5031012;28;20480;-46
2022/02/03 06:44:08;;;;;;;21.95;2.72;;;;;;;;;;5031643;28;20025;-44
2022/02/03 06:46:38;;;;;;;20.52;1.80;;;;;;;;;;5030956;28;20045;-43
2022/02/03 06:49:09;;;;;;;15.43;1.90;;;;;;;;;;5030658;28;20041;-44
2022/02/03 06:51:43;;;;;;;9.65;1.90;;;;;;;;;;5031329;28;20025;-44
2022/02/03 06:54:18;;;;;;;5.03;0.93;;;;;;;;;;5030539;28;20080;-44
2022/02/03 06:56:55;;;;;;;4.95;1.00;;;;;;;;;;5030635;28;20052;-43
2022/02/03 06:59:30;;;;;;;7.03;1.05;;;;;;;;;;5031061;28;20055;-43
2022/02/03 07:01:57;;;;;;;3.25;1.05;;;;;;;;;;5030764;28;20463;-43
2022/02/03 07:04:27;;;;;;;7.50;1.00;;;;;;;;;;5030694;28;20033;-45
2022/02/03 07:06:55;;;;;;;8.52;1.00;;;;;;;;;;5032063;28;20039;-43
2022/02/03 07:12:32;;;;;;;6.93;1.00;;;;;;;;;;5033062;28;20029;-44
2022/02/03 07:18:09;;;;;;;4.60;0.90;;;;;;;;;;5030206;28;20513;-36
2022/02/03 07:20:36;;;;;;;5.22;1.15;;;;;;;;;;5030878;28;20044;-36
2022/02/03 07:23:06;;;;;;;7.60;1.15;;;;;;;;;;5030886;28;20048;-36
2022/02/03 07:25:33;;;;;;;5.30;1.08;;;;;;;;;;5030240;28;20037;-36
2022/02/03 07:28:02;;;;;;;4.22;0.80;;;;;;;;;;5030432;28;20494;-36
2022/02/03 07:30:29;;;;;;;5.18;0.70;;;;;;;;;;5030183;28;20483;-36
2022/02/03 07:32:59;;;;;;;5.05;0.75;;;;;;;;;;5030983;28;20140;-36
2022/02/03 07:35:30;;;;;;;4.55;0.80;;;;;;;;;;5030525;28;20057;-36
2022/02/03 07:37:57;;;;;;;5.87;0.80;;;;;;;;;;5029869;28;20033;-36
2022/02/03 07:40:24;;;;;;;9.57;0.90;;;;;;;;;;5031432;28;20624;-38
2022/02/03 07:42:54;;;;;;;5.97;0.65;;;;;;;;;;5029866;28;20100;-38
2022/02/03 07:45:21;;;;;;;3.20;0.65;;;;;;;;;;5030732;28;20033;-36
2022/02/03 07:47:49;;;;;;;4.88;0.80;;;;;;;;;;5029943;28;20409;-36
2022/02/03 07:50:18;;;;;;;4.03;0.70;;;;;;;;;;5030631;28;20029;-36
2022/02/03 07:52:45;;;;;;;3.75;0.70;;;;;;;;;;5030921;28;20037;-36
2022/02/03 07:55:13;;;;;;;1.55;0.50;;;;;;;;;;5030415;28;20044;-37
2022/02/03 07:57:50;;;;;;;5.70;0.93;;;;;;;;;;5029468;28;20506;-37
2022/02/03 08:00:18;;;;;;;8.40;0.90;;;;;;;;;;5030588;28;20041;-37
2022/02/03 08:02:45;;;;;;;2.65;0.55;;;;;;;;;;5029976;28;20053;-37
2022/02/03 08:05:13;;;;;;;6.55;0.60;;;;;;;;;;5030672;28;20033;-37
2022/02/03 08:08:11;;;;;;;8.40;0.60;;;;;;;;;;5030246;28;20033;-37
2022/02/03 08:10:45;;;;;;;5.18;0.70;;;;;;;;;;5033718;28;20030;-37
2022/02/03 08:13:18;;;;;;;7.32;0.60;;;;;;;;;;5033790;28;20048;-37
2022/02/03 08:15:45;;;;;;;5.13;0.75;;;;;;;;;;5032845;28;20045;-37
2022/02/03 08:18:18;;;;;;;9.07;1.00;;;;;;;;;;5034016;28;20037;-37
2022/02/03 08:20:58;;;;;;;5.88;0.93;;;;;;;;;;5033507;28;20040;-37
2022/02/03 08:26:13;;;;;;;12.95;0.90;;;;;;;;;;5033752;28;20411;-37
2022/02/03 08:31:11;;;;;;;5.25;0.75;;;;;;;;;;5033397;28;20045;-37
2022/02/03 08:33:38;;;;;;;7.72;1.02;;;;;;;;;;5033476;28;20037;-37
2022/02/03 08:36:07;;;;;;;16.63;1.00;;;;;;;;;;5033243;28;20034;-37
2022/02/03 08:38:46;;;;;;;6.78;0.80;;;;;;;;;;5033524;28;20125;-37
2022/02/03 08:41:13;;;;;;;5.30;0.98;;;;;;;;;;5033152;28;20556;-37
2022/02/03 08:43:42;;;;;;;6.65;0.93;;;;;;;;;;5032890;28;20104;-37
2022/02/03 08:46:12;;;;;;;11.43;1.27;;;;;;;;;;5033485;28;20475;-37
2022/02/03 08:48:40;;;;;;;5.82;0.60;;;;;;;;;;5032433;28;20045;-37
2022/02/03 08:51:08;;;;;;;9.10;1.00;;;;;;;;;;5033259;28;20045;-37
2022/02/03 08:53:43;;;;;;;7.70;0.85;;;;;;;;;;5033021;28;20034;-37
2022/02/03 09:58:13;;;;;;;42.28;3.67;;;;;;;;;;5031994;28;20057;-37
2022/02/03 10:00:50;;;;;;;53.38;4.50;;;;;;;;;;5031727;28;20026;-37
2022/02/03 10:03:20;;;;;;;39.92;3.22;;;;;;;;;;5031496;28;20033;-37
2022/02/03 10:06:01;;;;;;;36.60;3.28;;;;;;;;;;5031728;28;20084;-37
2022/02/03 10:08:29;;;;;;;29.02;3.25;;;;;;;;;;5032102;28;20044;-37
2022/02/03 10:11:16;;;;;;;31.40;2.50;;;;;;;;;;5031175;28;20064;-37
2022/02/03 10:13:46;;;;;;;28.83;2.45;;;;;;;;;;5031608;28;20021;-37
2022/02/03 10:16:14;;;;;;;20.58;2.30;;;;;;;;;;5030934;28;20561;-37
2022/02/03 10:18:42;;;;;;;30.35;2.33;;;;;;;;;;5031420;28;20037;-37
2022/02/03 10:21:13;;;;;;;19.27;2.10;;;;;;;;;;5031714;28;20065;-37
2022/02/03 10:24:00;;;;;;;11.35;1.38;;;;;;;;;;5031187;28;20483;-37
2022/02/03 10:26:33;;;;;;;22.10;2.13;;;;;;;;;;5030709;28;20029;-37
2022/02/03 10:29:00;;;;;;;12.07;1.50;;;;;;;;;;5031598;28;20064;-37
2022/02/03 10:31:34;;;;;;;21.10;1.85;;;;;;;;;;5012283;28;20068;-37
2022/02/03 10:34:03;;;;;;;39.08;3.92;;;;;;;;;;5031468;28;20025;-37
2022/02/03 10:36:47;;;;;;;24.08;2.50;;;;;;;;;;5031314;28;20415;-37
2022/02/03 10:39:58;;;;;;;21.80;1.95;;;;;;;;;;5030598;28;20148;-37
2022/02/03 10:45:13;;;;;;;;;;;;;;;;;;5031114;28;20475;-37
2022/02/03 10:54:35;;;;;;;32.30;3.70;;;;;;;;;;5031348;28;20746;-37
2022/02/03 11:08:08;;;;;;;48.13;4.10;;;;;;;;;;5031025;28;20032;-36
2022/02/03 11:10:31;;;;;;;31.92;3.65;;;;;;;;;;5029908;28;20417;-36
2022/02/03 11:12:58;;;;;;;35.40;3.80;;;;;;;;;;5031004;28;20038;-36
2022/02/03 11:15:27;;;;;;;28.20;3.38;;;;;;;;;;5030288;28;20533;-36
2022/02/03 11:17:56;;;;;;;30.27;2.95;;;;;;;;;;5030325;28;20049;-36
2022/02/03 11:20:25;;;;;;;29.58;3.05;;;;;;;;;;5030745;28;20037;-36
2022/02/03 11:23:33;;;;;;;25.58;2.60;;;;;;;;;;5030454;28;20026;-36
2022/02/03 11:28:38;;;;;;;16.13;2.25;;;;;;;;;;5031395;28;20029;-36
2022/02/03 11:34:24;;;;;;;23.83;2.30;;;;;;;;;;5030742;28;20084;-36
2022/02/03 12:07:07;;;;;;;32.72;4.40;;;;;;;;;;5034422;28;20033;-36
2022/02/03 12:15:51;;;;;;;32.08;4.03;;;;;;;;;;5034074;28;20060;-36
2022/02/03 12:17:59;;;;;;;20.80;3.50;;;;;;;;;;5026074;28;20045;-36
2022/02/03 12:23:41;;;;;;;26.83;3.65;;;;;;;;;;5033935;28;20076;-36
2022/02/03 12:26:16;;;;;;;31.17;3.03;;;;;;;;;;5033415;28;20040;-36
2022/02/03 12:39:05;;;;;;;23.17;3.00;;;;;;;;;;5032796;28;20048;-37
2022/02/03 12:41:38;;;;;;;19.02;3.00;;;;;;;;;;5033309;28;20033;-37
2022/02/03 12:44:17;;;;;;;18.80;2.65;;;;;;;;;;5033063;28;20118;-36
2022/02/03 12:46:45;;;;;;;19.25;2.10;;;;;;;;;;5027479;28;20114;-37
2022/02/03 12:49:12;;;;;;;17.50;3.35;;;;;;;;;;5018364;28;20068;-37
2022/02/03 12:51:39;;;;;;;21.50;2.65;;;;;;;;;;5023603;28;20037;-37
2022/02/03 12:54:10;;;;;;;26.88;2.85;;;;;;;;;;5020239;28;20041;-37
2022/02/03 12:56:37;;;;;;;20.77;2.17;;;;;;;;;;5019550;28;20022;-37
2022/02/03 12:59:07;;;;;;;18.50;2.53;;;;;;;;;;5021985;28;20538;-37
2022/02/03 13:01:38;;;;;;;23.35;2.63;;;;;;;;;;5021345;28;20041;-37
2022/02/03 13:04:15;;;;;;;20.10;2.50;;;;;;;;;;5021047;28;20483;-37
2022/02/03 13:06:53;;;;;;;22.70;2.38;;;;;;;;;;5021909;28;20627;-37
2022/02/03 13:09:27;;;;;;;17.48;2.47;;;;;;;;;;5021565;28;20116;-37
2022/02/03 13:12:06;;;;;;;22.70;2.60;;;;;;;;;;5017559;28;20127;-37
2022/02/03 13:14:43;;;;;;;18.13;2.40;;;;;;;;;;5031784;28;20080;-36
2022/02/03 13:22:18;;;;;;;21.10;2.88;;;;;;;;;;5032584;28;20045;-36
2022/02/03 13:27:28;;;;;;;12.27;1.80;;;;;;;;;;5031899;28;20112;-36
2022/02/03 13:30:06;;;;;;;20.02;2.33;;;;;;;;;;5027901;28;20037;-36
2022/02/03 13:32:39;;;;;;;17.95;2.25;;;;;;;;;;5032355;28;20037;-36
2022/02/03 13:37:59;;;;;;;13.23;2.58;;;;;;;;;;5032482;28;20602;-36
2022/02/03 13:40:28;;;;;;;12.60;2.03;;;;;;;;;;5031856;28;20034;-36
2022/02/03 13:43:02;;;;;;;13.93;2.40;;;;;;;;;;5022209;28;20042;-36
2022/02/03 13:45:29;;;;;;;9.07;1.80;;;;;;;;;;5022002;28;20399;-36
2022/02/03 13:47:56;;;;;;;13.52;2.22;;;;;;;;;;5021349;28;20058;-36
2022/02/03 13:50:31;;;;;;;10.70;2.00;;;;;;;;;;5028443;28;20026;-36
2022/02/03 13:53:05;;;;;;;10.77;1.65;;;;;;;;;;5031590;28;20037;-36
2022/02/03 14:18:20;;;;;;;14.88;2.10;;;;;;;;;;5022642;28;20777;-36
2022/02/03 14:21:01;;;;;;;11.23;2.00;;;;;;;;;;5031353;28;20037;-36
2022/02/03 14:28:41;;;;;;;20.38;2.47;;;;;;;;;;5031093;28;20048;-37
2022/02/03 14:31:09;;;;;;;21.30;2.42;;;;;;;;;;5031641;28;20029;-37
2022/02/03 14:33:40;;;;;;;14.27;2.20;;;;;;;;;;5030646;28;20099;-37
2022/02/03 14:36:10;;;;;;;12.35;2.33;;;;;;;;;;5030499;28;20041;-37
2022/02/03 14:39:16;;;;;;;14.57;2.15;;;;;;;;;;5031133;28;20430;-37
2022/02/03 14:41:45;;;;;;;15.27;2.05;;;;;;;;;;5026394;28;20115;-37
2022/02/03 14:44:15;;;;;;;12.68;1.90;;;;;;;;;;5028455;28;20041;-37
2022/02/03 14:46:42;;;;;;;12.18;1.95;;;;;;;;;;5021509;28;20041;-37
2022/02/03 14:49:10;;;;;;;14.60;2.30;;;;;;;;;;5016591;28;20084;-37
2022/02/03 14:51:54;;;;;;;12.07;2.05;;;;;;;;;;5011476;28;20104;-35
2022/02/03 14:59:39;;;;;;;14.38;1.92;;;;;;;;;;5017594;28;20518;-38
2022/02/03 15:02:08;;;;;;;13.63;2.38;;;;;;;;;;5012798;28;20396;-38
2022/02/03 15:04:38;;;;;;;14.38;1.83;;;;;;;;;;5010485;28;20403;-37
2022/02/03 15:07:08;;;;;;;13.77;2.20;;;;;;;;;;5009340;28;20407;-38
2022/02/03 15:09:51;;;;;;;12.43;2.05;;;;;;;;;;5027592;28;20041;-38
2022/02/03 15:12:39;;;;;;;17.17;2.10;;;;;;;;;;5030082;28;20159;-38
2022/02/03 15:15:09;;;;;;;7.50;1.80;;;;;;;;;;5029826;28;20061;-38
2022/02/03 15:17:36;;;;;;;16.67;2.72;;;;;;;;;;5030368;28;20025;-38
2022/02/03 15:20:06;;;;;;;14.55;2.42;;;;;;;;;;5033497;28;20050;-38
2022/02/03 15:22:33;;;;;;;16.15;2.03;;;;;;;;;;5034511;28;20038;-38
2022/02/03 15:25:02;;;;;;;15.00;2.45;;;;;;;;;;5033845;28;20032;-38
2022/02/03 15:27:29;;;;;;;13.52;1.70;;;;;;;;;;5032784;28;20707;-38
2022/02/03 15:30:01;;;;;;;16.80;1.90;;;;;;;;;;5025509;28;20032;-38
2022/02/03 15:32:28;;;;;;;13.77;1.90;;;;;;;;;;5014678;28;20037;-38
2022/02/03 15:34:55;;;;;;;11.00;1.63;;;;;;;;;;5017152;28;20041;-38
2022/02/03 15:37:22;;;;;;;11.18;1.50;;;;;;;;;;5023800;28;20087;-38
2022/02/03 15:39:52;;;;;;;8.70;1.60;;;;;;;;;;5006228;28;20038;-38
2022/02/03 15:42:26;;;;;;;12.07;1.50;;;;;;;;;;5024779;28;20052;-35
2022/02/03 15:44:55;;;;;;;15.77;2.03;;;;;;;;;;5023185;28;20072;-35
2022/02/03 16:03:36;;;;;;;12.25;1.67;;;;;;;;;;4997161;28;20046;-39
2022/02/03 16:17:06;;;;;;;13.73;1.52;;;;;;;;;;5033028;28;20040;-35
2022/02/03 16:20:02;;;;;;;9.15;1.67;;;;;;;;;;5032990;28;20076;-35
2022/02/03 16:25:02;;;;;;;12.60;1.85;;;;;;;;;;5032583;28;20029;-35
2022/02/03 16:54:35;;;;;;;21.25;8.73;;;;;;;;;;5032845;28;20033;-35
2022/02/03 16:57:10;;;;;;;13.70;8.60;;;;;;;;;;5032780;28;20048;-34
2022/02/03 16:59:45;;;;;;;15.68;8.30;;;;;;;;;;5012754;28;20045;-34
2022/02/03 17:02:12;;;;;;;13.32;7.82;;;;;;;;;;5012458;28;20038;-35
2022/02/03 17:04:40;;;;;;;23.65;7.72;;;;;;;;;;5012571;28;20040;-35
2022/02/03 17:07:07;;;;;;;24.55;7.30;;;;;;;;;;5012770;28;20030;-34
2022/02/03 17:09:35;;;;;;;24.52;8.85;;;;;;;;;;5012627;28;20129;-34
2022/02/03 17:12:02;;;;;;;19.95;7.25;;;;;;;;;;5012684;28;20030;-34
2022/02/03 17:14:30;;;;;;;20.52;7.40;;;;;;;;;;5011970;28;20084;-35
2022/02/03 17:17:01;;;;;;;22.92;7.30;;;;;;;;;;5011574;28;20048;-34
2022/02/03 17:19:28;;;;;;;19.83;7.13;;;;;;;;;;5012431;28;20042;-41
2022/02/03 17:21:58;;;;;;;17.20;6.70;;;;;;;;;;5012715;28;20066;-35
2022/02/03 17:24:25;;;;;;;25.65;6.70;;;;;;;;;;5012474;28;20033;-35
2022/02/03 17:27:09;;;;;;;16.27;6.35;;;;;;;;;;5012605;28;20037;-35
2022/02/03 18:06:10;;;;;;;10.77;4.18;;;;;;;;;;5016343;28;20143;-35
2022/02/03 18:08:26;;;;;;;17.95;4.28;;;;;;;;;;5016741;28;20052;-35
2022/02/03 18:10:25;;;;;;;16.08;3.90;;;;;;;;;;5017383;28;20101;-36
2022/02/03 18:19:23;;;;;;;15.95;4.28;;;;;;;;;;5021932;28;20107;-35
2022/02/03 19:00:02;;;;;;;10.13;2.97;;;;;;;;;;4976034;28;20054;-35
2022/02/03 19:03:00;;;;;;;8.10;2.67;;;;;;;;;;5026593;28;20788;-35
2022/02/03 19:14:24;;;;;;;11.43;3.40;;;;;;;;;;5030292;28;20205;-35
2022/02/03 20:04:52;;;;;;;7.75;2.70;;;;;;;;;;5012657;28;20088;-35
2022/02/03 20:12:31;;;;;;;10.18;2.33;;;;;;;;;;5014351;28;20123;-35
2022/02/03 20:14:59;;;;;;;7.35;2.28;;;;;;;;;;5013266;28;20208;-35
2022/02/03 20:17:28;;;;;;;23.60;3.05;;;;;;;;;;5013699;28;20044;-35
2022/02/03 20:19:55;;;;;;;17.65;3.15;;;;;;;;;;5013973;28;20124;-35
2022/02/03 20:22:28;;;;;;;16.48;2.58;;;;;;;;;;5013808;28;20036;-35
2022/02/03 20:24:55;;;;;;;11.93;2.85;;;;;;;;;;5019158;28;20029;-35
2022/02/03 20:27:22;;;;;;;14.95;2.90;;;;;;;;;;5015291;28;20113;-35
2022/02/03 20:29:49;;;;;;;15.30;3.20;;;;;;;;;;5021600;28;20382;-35
2022/02/03 20:32:17;;;;;;;15.20;2.75;;;;;;;;;;5032784;28;20434;-35
2022/02/03 20:34:45;;;;;;;15.98;3.13;;;;;;;;;;5033728;28;20037;-35
2022/02/03 20:37:13;;;;;;;15.27;2.85;;;;;;;;;;5032055;28;20494;-35
2022/02/03 20:39:40;;;;;;;9.68;2.65;;;;;;;;;;5016241;28;20041;-35
2022/02/03 20:42:08;;;;;;;13.13;2.70;;;;;;;;;;5016137;28;20652;-35
2022/02/03 20:44:35;;;;;;;13.38;2.90;;;;;;;;;;5012884;28;20515;-35
2022/02/03 20:47:02;;;;;;;10.25;2.90;;;;;;;;;;5014046;28;20040;-35
2022/02/03 20:49:29;;;;;;;9.93;2.45;;;;;;;;;;5000997;28;20029;-35
2022/02/03 20:51:57;;;;;;;11.80;2.40;;;;;;;;;;5028559;28;20017;-36
2022/02/03 20:54:24;;;;;;;16.88;2.95;;;;;;;;;;5021551;28;20084;-35
2022/02/03 20:56:51;;;;;;;12.90;2.65;;;;;;;;;;5019448;28;20022;-35
2022/02/03 20:59:24;;;;;;;12.70;2.80;;;;;;;;;;5031912;28;20034;-35
2022/02/03 21:01:53;;;;;;;14.18;2.78;;;;;;;;;;5024679;28;20073;-35
2022/02/03 21:04:38;;;;;;;10.65;2.60;;;;;;;;;;5022006;28;20042;-33
2022/02/03 21:07:09;;;;;;;11.77;3.00;;;;;;;;;;5022114;28;20087;-35
2022/02/03 21:09:36;;;;;;;13.75;2.40;;;;;;;;;;5014229;28;20034;-34
2022/02/03 21:12:03;;;;;;;12.73;2.38;;;;;;;;;;5021680;28;20563;-34
2022/02/03 21:14:32;;;;;;;14.02;3.17;;;;;;;;;;5013580;28;20052;-34
2022/02/03 21:17:00;;;;;;;13.85;2.72;;;;;;;;;;5032248;28;20056;-34
2022/02/03 21:19:27;;;;;;;7.40;2.45;;;;;;;;;;5032570;28;20025;-34
2022/02/03 21:21:54;;;;;;;13.30;2.40;;;;;;;;;;5026453;28;20032;-34
2022/02/03 21:24:21;;;;;;;15.25;2.28;;;;;;;;;;5014828;28;20042;-34
2022/02/03 21:26:51;;;;;;;13.70;2.17;;;;;;;;;;5012046;28;20034;-35
2022/02/03 21:29:18;;;;;;;16.13;2.97;;;;;;;;;;5011598;28;20045;-34
2022/02/03 21:31:45;;;;;;;12.25;2.60;;;;;;;;;;5012624;28;20034;-34
2022/02/03 21:34:16;;;;;;;13.30;2.10;;;;;;;;;;5013830;28;20034;-34
2022/02/03 21:36:44;;;;;;;11.40;2.33;;;;;;;;;;5013771;28;20040;-35
2022/02/03 21:39:13;;;;;;;16.80;2.75;;;;;;;;;;5012687;28;20025;-34
2022/02/03 21:41:40;;;;;;;18.08;2.78;;;;;;;;;;5011869;28;20116;-35
2022/02/03 21:44:07;;;;;;;14.75;2.55;;;;;;;;;;5012500;28;20038;-34
2022/02/03 21:46:35;;;;;;;12.82;2.78;;;;;;;;;;5012287;28;20025;-35
2022/02/03 21:49:02;;;;;;;11.25;3.00;;;;;;;;;;5012087;28;20236;-35
2022/02/03 21:51:30;;;;;;;11.95;2.20;;;;;;;;;;5012316;28;20041;-34
2022/02/03 21:57:19;;;;;;;11.85;2.72;;;;;;;;;;5014904;28;20091;-35
2022/02/03 21:59:46;;;;;;;14.45;2.80;;;;;;;;;;5017373;28;20448;-35
2022/02/03 22:02:13;;;;;;;10.80;2.30;;;;;;;;;;5013513;28;20053;-40
2022/02/03 22:04:40;;;;;;;10.48;2.92;;;;;;;;;;5020769;28;20035;-35
2022/02/03 22:07:07;;;;;;;16.48;3.03;;;;;;;;;;5006247;28;20050;-35
2022/02/03 22:09:37;;;;;;;26.33;4.07;;;;;;;;;;5028460;28;20036;-34
2022/02/03 22:12:07;;;;;;;19.50;2.97;;;;;;;;;;5029067;28;20537;-35
2022/02/03 22:14:35;;;;;;;23.55;3.20;;;;;;;;;;5029401;28;20053;-36
2022/02/03 22:17:02;;;;;;;15.13;2.90;;;;;;;;;;5029051;28;20546;-36
2022/02/03 22:19:30;;;;;;;12.82;2.53;;;;;;;;;;4998311;28;20049;-35
2022/02/03 22:23:13;;;;;;;14.52;2.80;;;;;;;;;;5029325;28;20036;-35
2022/02/03 22:43:48;;;;;;;11.07;2.78;;;;;;;;;;5027507;28;20041;-35
2022/02/03 22:46:35;;;;;;;19.13;2.50;;;;;;;;;;5027591;28;20387;-35
2022/02/03 22:49:03;;;;;;;13.95;2.85;;;;;;;;;;5026758;28;20443;-35
2022/02/03 22:51:32;;;;;;;14.68;2.90;;;;;;;;;;5025781;28;20030;-35
2022/02/03 22:54:00;;;;;;;17.70;3.08;;;;;;;;;;5028557;28;20041;-35
2022/02/03 22:56:27;;;;;;;13.98;2.53;;;;;;;;;;5027561;28;20079;-35
2022/02/03 23:01:25;;;;;;;14.43;2.30;;;;;;;;;;5028540;28;20060;-39
2022/02/03 23:03:52;;;;;;;7.68;1.70;;;;;;;;;;5028956;28;20025;-39
2022/02/03 23:06:20;;;;;;;7.10;1.80;;;;;;;;;;5027091;28;20084;-39
2022/02/03 23:14:09;;;;;;;7.18;1.45;;;;;;;;;;5026290;28;20551;-38
2022/02/03 23:16:57;;;;;;;6.90;1.23;;;;;;;;;;5021794;28;20038;-38
2022/02/03 23:19:46;;;;;;;10.60;1.30;;;;;;;;;;5017892;28;20484;-39
2022/02/03 23:22:14;;;;;;;18.55;2.25;;;;;;;;;;5022263;28;20037;-39
2022/02/03 23:24:45;;;;;;;20.02;2.83;;;;;;;;;;5023593;28;20386;-39
2022/02/03 23:29:55;;;;;;;20.48;2.40;;;;;;;;;;5015701;28;20041;-39
2022/02/03 23:32:23;;;;;;;40.10;2.97;;;;;;;;;;5024088;28;20034;-40
2022/02/03 23:35:00;;;;;;;441.58;29.92;;;;;;;;;;5016062;28;20475;-40
2022/02/03 23:37:35;;;;;;;824.50;60.85;;;;;;;;;;5019549;28;20041;-36
2022/02/03 23:51:10;;;;;;;423.20;34.75;;;;;;;;;;5013403;28;20149;-36
